Airfield :
LOGIN :

Register | Disclaimer

   EN    FR    IT 

 










Legend :    VFR   Marginal VFR   IFR   Intensive IFR   Very Intensive IFR
Visi :
Ceiling :
>= 8 km
>= 3000ft
5 to 8 km
1000 to 3000 ft
1500m to 5 km
500 to 1000 ft
800 to 1500m
200 to 500 ft
< 800m
< 200 ft
Symbols :   Thunderstorms  Fog  Heavy snow  Heavy precipitations  Wind > 20 kt
SIGMETs :     Misc.  Thunderstorms  Icing  Turbulence  Mountain Waves  Volcanic Ashes







- Airport Elevation : 102 ft
- IATA code : CNG
- Download approach charts


LFBG - Cognac

CURRENT METAR :
  • 242200Z AUTO 34002KT CAVOK 23/19 Q1013 NOSIG

EXPIRED METARs :
  • 242130Z AUTO 27003KT CAVOK 24/19 Q1013 NOSIG
  • 242100Z AUTO 00000KT CAVOK 24/20 Q1013 NOSIG
  • 242030Z AUTO 13003KT CAVOK 25/19 Q1013 NOSIG
  • 242000Z AUTO 14001KT CAVOK 26/19 Q1013 NOSIG
  • 241930Z AUTO 21004KT CAVOK 27/19 Q1013 NOSIG

TAF TAF LFBG
Valid from the 24 at 21:00 until the 25 at 21:00 UTC


242000Z 2421/2521 VRB02KT CAVOK
TEMPO 2503/2507 BKN010
No reported NOTAMs for that airfield.



MET'MAP, your aeronautical weather chart ! - Copyright ORBIFLY December 2007 - Disclaimer

ORBIFLY MET'MAP TEAM :

Programming & Development : Alexandra Zaïnal
Concept & Development : Baudouin d'Aumeries
Co-Development & Prog : Marc-Olivier Méhu
Technical & hardware support : Manuel Goepfert

Contact : metmap@orbifly.com




SOURCES & CREDITS :

   NOAA